Tennyson, IN

1:56 PM CDT on April 01, 2015 (GMT -0500)
Tennyson Indiana | | Change Station
CLOSE
Current Station
Personal Weather Station
Location: Tennyson, IN
Elevation: 427 ft
Nearby Weather Stations

Elev 427 ft 38.08 °N, 87.12 °W | Updated 28 minutes ago

Clear
Clear
75.0 °F
Feels Like 75 °F
N
3.8
Wind Variable Wind from SSE
Gusts 8.3 mph

Today
High -- | Low -- °F
--% Chance of Precip.
Yesterday
High -- | Low -- °F
Precip. -- in
6:34 AM 7:11 PM
Waxing Gibbous, 93% visible
Pressure 30.08 in
Visibility 10.0 miles
Clouds Clear
Heat Index 75 °F
Dew Point 15 °F
Humidity 10%
Rainfall 0.00 in
Snow Depth Not available.
UV 8 out of 12
Pollen 10.30 out of 12
Air Quality Not available.
Flu Activity Not available.
METAR KHNB 011835Z AUTO 18007KT 10SM CLR 20/02 A3008 RMK AO1

More Conditions Fewer Conditions

Pressure 30.08 in
Visibility 10.0 miles
Clouds Clear
Heat Index 75 °F
Dew Point 15 °F
Humidity 10%
Rainfall 0.00 in
Snow Depth Not available.
UV 8 out of 12
Pollen 10.30 out of 12
Air Quality Not available.
Flu Activity Not available.
METAR KHNB 011835Z AUTO 18007KT 10SM CLR 20/02 A3008 RMK AO1

More Conditions Fewer Conditions

10-Day Weather Forecast

Almanac

Astronomy

Apr. 01, 2015 Rise Set
Actual Time
Civil Twilight
Nautical Twilight
Astronomical Twilight
Moon
Length of Visible Light
Length of Day
Tomorrow will be .
, % of the Moon is Illuminated

Today's Extremes

State Highs State Lows

Community

WunderPhotos

Upload Photos

1,810,036 photos uploaded!

WunderBlogs® & News

Nearby

Air Quality

  Air Quality AQ Index Pollutant
Not available.

Snow Depth

Station Depth Elevation

Earthquake Activity

City Distance Mag. Time & Date
Minimum magnitude displayed is 2.5.

Coastal Water Temperatures

Place Temperature

Stations

Nearby Weather Stations

Station Location Temp. Windchill Dew Point Humidity Wind Precip. Elev Updated Type